sensor_id;sensor_type;location;lat;lon;timestamp;P1;durP1;ratioP1;P2;durP2;ratioP2
70588;SDS011;58152;49.202;18.744;2022-11-20T00:00:10;34.97;;;21.60;;
70588;SDS011;58152;49.202;18.744;2022-11-20T00:02:36;34.83;;;21.40;;
70588;SDS011;58152;49.202;18.744;2022-11-20T00:05:07;38.53;;;22.02;;
70588;SDS011;58152;49.202;18.744;2022-11-20T00:07:35;36.30;;;21.92;;
70588;SDS011;58152;49.202;18.744;2022-11-20T00:10:03;36.75;;;21.08;;
70588;SDS011;58152;49.202;18.744;2022-11-20T00:12:33;34.88;;;20.17;;
70588;SDS011;58152;49.202;18.744;2022-11-20T00:14:59;34.17;;;20.65;;
70588;SDS011;58152;49.202;18.744;2022-11-20T00:17:24;33.00;;;20.40;;
70588;SDS011;58152;49.202;18.744;2022-11-20T00:19:51;36.38;;;21.58;;
70588;SDS011;58152;49.202;18.744;2022-11-20T00:22:17;38.63;;;22.40;;
70588;SDS011;58152;49.202;18.744;2022-11-20T00:24:42;32.50;;;20.05;;
70588;SDS011;58152;49.202;18.744;2022-11-20T00:27:08;32.47;;;20.50;;
70588;SDS011;58152;49.202;18.744;2022-11-20T00:29:33;34.60;;;21.45;;
70588;SDS011;58152;49.202;18.744;2022-11-20T00:31:59;38.70;;;22.40;;
70588;SDS011;58152;49.202;18.744;2022-11-20T00:34:24;35.55;;;22.75;;
70588;SDS011;58152;49.202;18.744;2022-11-20T00:36:50;45.03;;;28.00;;
70588;SDS011;58152;49.202;18.744;2022-11-20T00:39:15;51.20;;;28.00;;
70588;SDS011;58152;49.202;18.744;2022-11-20T00:41:41;41.08;;;25.20;;
70588;SDS011;58152;49.202;18.744;2022-11-20T00:44:06;36.92;;;21.98;;
70588;SDS011;58152;49.202;18.744;2022-11-20T00:46:32;31.95;;;19.52;;
70588;SDS011;58152;49.202;18.744;2022-11-20T00:48:58;34.42;;;21.33;;
70588;SDS011;58152;49.202;18.744;2022-11-20T00:51:24;34.25;;;20.13;;
70588;SDS011;58152;49.202;18.744;2022-11-20T00:53:51;37.67;;;21.65;;
70588;SDS011;58152;49.202;18.744;2022-11-20T00:56:17;38.78;;;21.63;;
70588;SDS011;58152;49.202;18.744;2022-11-20T00:58:45;33.92;;;21.55;;
70588;SDS011;58152;49.202;18.744;2022-11-20T01:01:13;38.67;;;22.63;;
70588;SDS011;58152;49.202;18.744;2022-11-20T01:03:41;36.92;;;21.90;;
70588;SDS011;58152;49.202;18.744;2022-11-20T01:08:42;39.58;;;22.48;;
70588;SDS011;58152;49.202;18.744;2022-11-20T01:11:09;38.15;;;22.55;;
70588;SDS011;58152;49.202;18.744;2022-11-20T01:13:37;35.40;;;21.60;;
70588;SDS011;58152;49.202;18.744;2022-11-20T01:16:08;39.13;;;23.23;;
70588;SDS011;58152;49.202;18.744;2022-11-20T01:18:40;35.13;;;22.05;;
70588;SDS011;58152;49.202;18.744;2022-11-20T01:21:12;40.67;;;23.48;;
70588;SDS011;58152;49.202;18.744;2022-11-20T01:23:42;33.85;;;21.35;;
70588;SDS011;58152;49.202;18.744;2022-11-20T01:26:10;38.17;;;21.83;;
70588;SDS011;58152;49.202;18.744;2022-11-20T01:28:43;37.03;;;21.83;;
70588;SDS011;58152;49.202;18.744;2022-11-20T01:31:16;32.28;;;20.92;;
70588;SDS011;58152;49.202;18.744;2022-11-20T01:33:45;38.22;;;23.02;;
70588;SDS011;58152;49.202;18.744;2022-11-20T01:36:12;40.17;;;22.77;;
70588;SDS011;58152;49.202;18.744;2022-11-20T01:38:38;35.00;;;21.13;;
70588;SDS011;58152;49.202;18.744;2022-11-20T01:41:04;33.40;;;20.98;;
70588;SDS011;58152;49.202;18.744;2022-11-20T01:43:29;33.90;;;20.92;;
70588;SDS011;58152;49.202;18.744;2022-11-20T01:45:59;34.50;;;21.27;;
70588;SDS011;58152;49.202;18.744;2022-11-20T01:48:38;37.08;;;20.55;;
70588;SDS011;58152;49.202;18.744;2022-11-20T01:51:15;35.00;;;19.92;;
70588;SDS011;58152;49.202;18.744;2022-11-20T01:53:45;39.03;;;22.45;;
70588;SDS011;58152;49.202;18.744;2022-11-20T01:56:11;34.58;;;20.52;;
70588;SDS011;58152;49.202;18.744;2022-11-20T01:58:39;35.47;;;21.45;;
70588;SDS011;58152;49.202;18.744;2022-11-20T02:01:12;34.85;;;21.38;;
70588;SDS011;58152;49.202;18.744;2022-11-20T02:03:38;34.38;;;19.88;;
70588;SDS011;58152;49.202;18.744;2022-11-20T02:06:10;37.25;;;22.83;;
70588;SDS011;58152;49.202;18.744;2022-11-20T02:08:37;33.58;;;20.55;;
70588;SDS011;58152;49.202;18.744;2022-11-20T02:11:03;32.67;;;20.02;;
70588;SDS011;58152;49.202;18.744;2022-11-20T02:13:29;39.38;;;23.70;;
70588;SDS011;58152;49.202;18.744;2022-11-20T02:16:26;38.90;;;23.45;;
70588;SDS011;58152;49.202;18.744;2022-11-20T02:18:54;40.10;;;23.60;;
70588;SDS011;58152;49.202;18.744;2022-11-20T02:24:00;38.75;;;22.67;;
70588;SDS011;58152;49.202;18.744;2022-11-20T02:26:31;38.95;;;23.08;;
70588;SDS011;58152;49.202;18.744;2022-11-20T02:29:02;35.80;;;21.23;;
70588;SDS011;58152;49.202;18.744;2022-11-20T02:31:28;33.03;;;20.55;;
70588;SDS011;58152;49.202;18.744;2022-11-20T02:33:58;34.40;;;20.73;;
70588;SDS011;58152;49.202;18.744;2022-11-20T02:36:24;39.40;;;22.90;;
70588;SDS011;58152;49.202;18.744;2022-11-20T02:38:55;36.38;;;23.10;;
70588;SDS011;58152;49.202;18.744;2022-11-20T02:41:21;38.05;;;22.95;;
70588;SDS011;58152;49.202;18.744;2022-11-20T02:43:47;38.15;;;23.50;;
70588;SDS011;58152;49.202;18.744;2022-11-20T02:46:12;36.90;;;21.65;;
70588;SDS011;58152;49.202;18.744;2022-11-20T02:48:38;35.17;;;21.20;;
70588;SDS011;58152;49.202;18.744;2022-11-20T02:51:03;38.45;;;23.75;;
70588;SDS011;58152;49.202;18.744;2022-11-20T02:53:29;37.80;;;22.98;;
70588;SDS011;58152;49.202;18.744;2022-11-20T02:55:55;40.58;;;24.55;;
70588;SDS011;58152;49.202;18.744;2022-11-20T02:58:20;35.97;;;22.50;;
70588;SDS011;58152;49.202;18.744;2022-11-20T03:00:45;34.03;;;21.85;;
70588;SDS011;58152;49.202;18.744;2022-11-20T03:03:11;34.65;;;23.27;;
70588;SDS011;58152;49.202;18.744;2022-11-20T03:05:36;38.00;;;23.10;;
70588;SDS011;58152;49.202;18.744;2022-11-20T03:08:02;37.78;;;21.50;;
70588;SDS011;58152;49.202;18.744;2022-11-20T03:10:27;36.33;;;22.10;;
70588;SDS011;58152;49.202;18.744;2022-11-20T03:12:54;36.80;;;21.92;;
70588;SDS011;58152;49.202;18.744;2022-11-20T03:15:21;31.58;;;20.80;;
70588;SDS011;58152;49.202;18.744;2022-11-20T03:17:52;36.20;;;21.83;;
70588;SDS011;58152;49.202;18.744;2022-11-20T03:20:19;34.33;;;21.30;;
70588;SDS011;58152;49.202;18.744;2022-11-20T03:22:45;35.05;;;21.50;;
70588;SDS011;58152;49.202;18.744;2022-11-20T03:25:10;40.25;;;23.17;;
70588;SDS011;58152;49.202;18.744;2022-11-20T03:27:36;34.03;;;21.77;;
70588;SDS011;58152;49.202;18.744;2022-11-20T03:30:01;34.15;;;21.13;;
70588;SDS011;58152;49.202;18.744;2022-11-20T03:32:28;38.85;;;22.73;;
70588;SDS011;58152;49.202;18.744;2022-11-20T03:34:53;34.80;;;21.15;;
70588;SDS011;58152;49.202;18.744;2022-11-20T03:37:19;37.67;;;21.80;;
70588;SDS011;58152;49.202;18.744;2022-11-20T03:39:44;40.13;;;23.83;;
70588;SDS011;58152;49.202;18.744;2022-11-20T03:42:10;34.92;;;22.13;;
70588;SDS011;58152;49.202;18.744;2022-11-20T03:44:54;33.67;;;21.55;;
70588;SDS011;58152;49.202;18.744;2022-11-20T03:47:20;38.53;;;21.42;;
70588;SDS011;58152;49.202;18.744;2022-11-20T03:49:46;34.38;;;21.60;;
70588;SDS011;58152;49.202;18.744;2022-11-20T03:52:11;33.53;;;20.80;;
70588;SDS011;58152;49.202;18.744;2022-11-20T03:54:37;33.30;;;21.27;;
70588;SDS011;58152;49.202;18.744;2022-11-20T03:57:02;35.58;;;21.38;;
70588;SDS011;58152;49.202;18.744;2022-11-20T03:59:27;32.45;;;19.85;;
70588;SDS011;58152;49.202;18.744;2022-11-20T04:01:53;34.58;;;19.83;;
70588;SDS011;58152;49.202;18.744;2022-11-20T04:04:18;36.00;;;21.60;;
70588;SDS011;58152;49.202;18.744;2022-11-20T04:06:44;36.07;;;21.53;;
70588;SDS011;58152;49.202;18.744;2022-11-20T04:09:09;32.90;;;21.33;;
70588;SDS011;58152;49.202;18.744;2022-11-20T04:11:36;35.50;;;22.42;;
70588;SDS011;58152;49.202;18.744;2022-11-20T04:14:05;31.67;;;19.50;;
70588;SDS011;58152;49.202;18.744;2022-11-20T04:16:32;33.65;;;21.50;;
70588;SDS011;58152;49.202;18.744;2022-11-20T04:19:00;33.00;;;20.85;;
70588;SDS011;58152;49.202;18.744;2022-11-20T04:21:27;36.75;;;22.00;;
70588;SDS011;58152;49.202;18.744;2022-11-20T04:23:53;35.03;;;22.17;;
70588;SDS011;58152;49.202;18.744;2022-11-20T04:26:19;33.63;;;21.10;;
70588;SDS011;58152;49.202;18.744;2022-11-20T04:28:46;32.15;;;20.55;;
70588;SDS011;58152;49.202;18.744;2022-11-20T04:31:16;32.33;;;20.05;;
70588;SDS011;58152;49.202;18.744;2022-11-20T04:33:43;31.67;;;20.80;;
70588;SDS011;58152;49.202;18.744;2022-11-20T04:38:42;33.05;;;20.48;;
70588;SDS011;58152;49.202;18.744;2022-11-20T04:41:10;34.67;;;21.30;;
70588;SDS011;58152;49.202;18.744;2022-11-20T04:43:40;34.10;;;21.17;;
70588;SDS011;58152;49.202;18.744;2022-11-20T04:46:06;36.67;;;20.27;;
70588;SDS011;58152;49.202;18.744;2022-11-20T04:48:32;32.53;;;21.52;;
70588;SDS011;58152;49.202;18.744;2022-11-20T04:50:57;31.90;;;20.95;;
70588;SDS011;58152;49.202;18.744;2022-11-20T04:53:27;34.53;;;21.45;;
70588;SDS011;58152;49.202;18.744;2022-11-20T04:55:58;37.17;;;20.92;;
70588;SDS011;58152;49.202;18.744;2022-11-20T04:58:24;31.50;;;19.90;;
70588;SDS011;58152;49.202;18.744;2022-11-20T05:00:50;34.85;;;21.15;;
70588;SDS011;58152;49.202;18.744;2022-11-20T05:03:16;34.25;;;21.80;;
70588;SDS011;58152;49.202;18.744;2022-11-20T05:05:42;32.40;;;20.75;;
70588;SDS011;58152;49.202;18.744;2022-11-20T05:08:07;32.83;;;21.08;;
70588;SDS011;58152;49.202;18.744;2022-11-20T05:10:33;38.45;;;22.40;;
70588;SDS011;58152;49.202;18.744;2022-11-20T05:12:58;36.80;;;22.27;;
70588;SDS011;58152;49.202;18.744;2022-11-20T05:15:24;35.75;;;21.52;;
70588;SDS011;58152;49.202;18.744;2022-11-20T05:17:50;36.28;;;21.75;;
70588;SDS011;58152;49.202;18.744;2022-11-20T05:20:16;35.92;;;19.77;;
70588;SDS011;58152;49.202;18.744;2022-11-20T05:22:43;34.95;;;21.20;;
70588;SDS011;58152;49.202;18.744;2022-11-20T05:25:09;34.70;;;21.20;;
70588;SDS011;58152;49.202;18.744;2022-11-20T05:27:35;32.20;;;20.90;;
70588;SDS011;58152;49.202;18.744;2022-11-20T05:30:01;36.70;;;21.92;;
70588;SDS011;58152;49.202;18.744;2022-11-20T05:32:30;36.92;;;21.75;;
70588;SDS011;58152;49.202;18.744;2022-11-20T05:34:56;34.20;;;20.35;;
70588;SDS011;58152;49.202;18.744;2022-11-20T05:37:21;35.90;;;21.38;;
70588;SDS011;58152;49.202;18.744;2022-11-20T05:39:47;35.58;;;21.05;;
70588;SDS011;58152;49.202;18.744;2022-11-20T05:42:12;34.92;;;21.88;;
70588;SDS011;58152;49.202;18.744;2022-11-20T05:44:56;33.58;;;20.92;;
70588;SDS011;58152;49.202;18.744;2022-11-20T05:47:26;36.25;;;21.38;;
70588;SDS011;58152;49.202;18.744;2022-11-20T05:49:53;30.40;;;19.65;;
70588;SDS011;58152;49.202;18.744;2022-11-20T05:52:19;38.97;;;20.65;;
70588;SDS011;58152;49.202;18.744;2022-11-20T05:54:45;32.70;;;21.88;;
70588;SDS011;58152;49.202;18.744;2022-11-20T05:57:13;32.65;;;20.35;;
70588;SDS011;58152;49.202;18.744;2022-11-20T05:59:40;36.05;;;22.20;;
70588;SDS011;58152;49.202;18.744;2022-11-20T06:02:06;31.80;;;19.77;;
70588;SDS011;58152;49.202;18.744;2022-11-20T06:04:31;31.27;;;20.35;;
70588;SDS011;58152;49.202;18.744;2022-11-20T06:06:57;38.00;;;21.73;;
70588;SDS011;58152;49.202;18.744;2022-11-20T06:09:22;35.92;;;21.45;;
70588;SDS011;58152;49.202;18.744;2022-11-20T06:11:48;28.85;;;18.33;;
70588;SDS011;58152;49.202;18.744;2022-11-20T06:14:13;31.60;;;18.85;;
70588;SDS011;58152;49.202;18.744;2022-11-20T06:16:39;34.50;;;20.63;;
70588;SDS011;58152;49.202;18.744;2022-11-20T06:19:07;32.78;;;19.27;;
70588;SDS011;58152;49.202;18.744;2022-11-20T06:21:32;36.35;;;21.85;;
70588;SDS011;58152;49.202;18.744;2022-11-20T06:23:58;33.30;;;21.30;;
70588;SDS011;58152;49.202;18.744;2022-11-20T06:26:25;36.42;;;22.23;;
70588;SDS011;58152;49.202;18.744;2022-11-20T06:28:52;35.70;;;20.90;;
70588;SDS011;58152;49.202;18.744;2022-11-20T06:31:19;37.42;;;21.77;;
70588;SDS011;58152;49.202;18.744;2022-11-20T06:33:46;31.90;;;20.83;;
70588;SDS011;58152;49.202;18.744;2022-11-20T06:36:13;32.72;;;20.80;;
70588;SDS011;58152;49.202;18.744;2022-11-20T06:38:40;34.42;;;20.40;;
70588;SDS011;58152;49.202;18.744;2022-11-20T06:41:06;36.50;;;20.58;;
70588;SDS011;58152;49.202;18.744;2022-11-20T06:43:35;35.08;;;20.10;;
70588;SDS011;58152;49.202;18.744;2022-11-20T06:46:00;31.48;;;19.20;;
70588;SDS011;58152;49.202;18.744;2022-11-20T06:48:35;34.85;;;22.13;;
70588;SDS011;58152;49.202;18.744;2022-11-20T06:51:14;33.35;;;21.05;;
70588;SDS011;58152;49.202;18.744;2022-11-20T06:53:43;33.08;;;19.60;;
70588;SDS011;58152;49.202;18.744;2022-11-20T06:56:09;33.33;;;21.27;;
70588;SDS011;58152;49.202;18.744;2022-11-20T06:58:35;33.05;;;19.42;;
70588;SDS011;58152;49.202;18.744;2022-11-20T07:01:02;29.92;;;18.48;;
70588;SDS011;58152;49.202;18.744;2022-11-20T07:03:32;34.67;;;20.67;;
70588;SDS011;58152;49.202;18.744;2022-11-20T07:05:58;37.60;;;22.30;;
70588;SDS011;58152;49.202;18.744;2022-11-20T07:08:25;33.58;;;19.50;;
70588;SDS011;58152;49.202;18.744;2022-11-20T07:10:51;34.78;;;20.88;;
70588;SDS011;58152;49.202;18.744;2022-11-20T07:13:16;35.17;;;21.65;;
70588;SDS011;58152;49.202;18.744;2022-11-20T07:15:45;31.13;;;19.80;;
70588;SDS011;58152;49.202;18.744;2022-11-20T07:18:10;34.58;;;21.20;;
70588;SDS011;58152;49.202;18.744;2022-11-20T07:20:41;35.63;;;21.67;;
70588;SDS011;58152;49.202;18.744;2022-11-20T07:23:10;32.28;;;19.50;;
70588;SDS011;58152;49.202;18.744;2022-11-20T07:25:36;33.90;;;19.52;;
70588;SDS011;58152;49.202;18.744;2022-11-20T07:28:01;35.47;;;21.13;;
70588;SDS011;58152;49.202;18.744;2022-11-20T07:30:27;34.25;;;21.20;;
70588;SDS011;58152;49.202;18.744;2022-11-20T07:32:53;35.95;;;21.25;;
70588;SDS011;58152;49.202;18.744;2022-11-20T07:35:20;31.35;;;20.38;;
70588;SDS011;58152;49.202;18.744;2022-11-20T07:37:46;35.63;;;22.38;;
70588;SDS011;58152;49.202;18.744;2022-11-20T07:40:13;35.22;;;21.80;;
70588;SDS011;58152;49.202;18.744;2022-11-20T07:42:46;35.75;;;21.70;;
70588;SDS011;58152;49.202;18.744;2022-11-20T07:45:22;34.30;;;20.08;;
70588;SDS011;58152;49.202;18.744;2022-11-20T07:48:04;33.08;;;20.08;;
70588;SDS011;58152;49.202;18.744;2022-11-20T07:50:30;32.67;;;19.60;;
70588;SDS011;58152;49.202;18.744;2022-11-20T07:53:01;34.40;;;20.83;;
70588;SDS011;58152;49.202;18.744;2022-11-20T07:55:38;37.90;;;21.90;;
70588;SDS011;58152;49.202;18.744;2022-11-20T07:58:04;36.60;;;22.33;;
70588;SDS011;58152;49.202;18.744;2022-11-20T08:00:30;31.67;;;20.92;;
70588;SDS011;58152;49.202;18.744;2022-11-20T08:02:56;34.95;;;21.88;;
70588;SDS011;58152;49.202;18.744;2022-11-20T08:05:21;32.75;;;21.65;;
70588;SDS011;58152;49.202;18.744;2022-11-20T08:07:47;33.55;;;20.77;;
70588;SDS011;58152;49.202;18.744;2022-11-20T08:10:14;37.85;;;22.45;;
70588;SDS011;58152;49.202;18.744;2022-11-20T08:12:50;33.70;;;21.17;;
70588;SDS011;58152;49.202;18.744;2022-11-20T08:15:36;33.33;;;21.27;;
70588;SDS011;58152;49.202;18.744;2022-11-20T08:18:03;34.55;;;22.00;;
70588;SDS011;58152;49.202;18.744;2022-11-20T08:20:31;34.22;;;21.20;;
70588;SDS011;58152;49.202;18.744;2022-11-20T08:22:59;35.03;;;21.10;;
70588;SDS011;58152;49.202;18.744;2022-11-20T08:25:29;38.40;;;24.00;;
70588;SDS011;58152;49.202;18.744;2022-11-20T08:27:58;68.05;;;41.67;;
70588;SDS011;58152;49.202;18.744;2022-11-20T08:30:25;142.95;;;87.85;;
70588;SDS011;58152;49.202;18.744;2022-11-20T08:32:51;117.53;;;70.53;;
70588;SDS011;58152;49.202;18.744;2022-11-20T08:35:16;68.75;;;41.50;;
70588;SDS011;58152;49.202;18.744;2022-11-20T08:37:45;53.53;;;33.67;;
70588;SDS011;58152;49.202;18.744;2022-11-20T08:40:14;46.42;;;27.08;;
70588;SDS011;58152;49.202;18.744;2022-11-20T08:42:50;40.58;;;24.02;;
70588;SDS011;58152;49.202;18.744;2022-11-20T08:45:19;33.47;;;20.55;;
70588;SDS011;58152;49.202;18.744;2022-11-20T08:47:47;34.00;;;20.05;;
70588;SDS011;58152;49.202;18.744;2022-11-20T08:50:16;31.98;;;20.45;;
70588;SDS011;58152;49.202;18.744;2022-11-20T08:52:45;35.80;;;22.63;;
70588;SDS011;58152;49.202;18.744;2022-11-20T08:55:11;34.33;;;20.83;;
70588;SDS011;58152;49.202;18.744;2022-11-20T08:57:37;36.22;;;22.63;;
70588;SDS011;58152;49.202;18.744;2022-11-20T09:00:04;35.38;;;21.27;;
70588;SDS011;58152;49.202;18.744;2022-11-20T09:02:32;32.33;;;19.50;;
70588;SDS011;58152;49.202;18.744;2022-11-20T09:04:58;32.13;;;19.63;;
70588;SDS011;58152;49.202;18.744;2022-11-20T09:10:52;31.25;;;18.85;;
70588;SDS011;58152;49.202;18.744;2022-11-20T09:13:26;30.63;;;18.20;;
70588;SDS011;58152;49.202;18.744;2022-11-20T09:16:06;29.65;;;18.60;;
70588;SDS011;58152;49.202;18.744;2022-11-20T09:19:05;31.45;;;18.90;;
70588;SDS011;58152;49.202;18.744;2022-11-20T09:31:43;31.58;;;18.60;;
70588;SDS011;58152;49.202;18.744;2022-11-20T09:34:09;31.60;;;19.60;;
70588;SDS011;58152;49.202;18.744;2022-11-20T09:36:35;31.75;;;19.67;;
70588;SDS011;58152;49.202;18.744;2022-11-20T09:39:03;32.47;;;20.67;;
70588;SDS011;58152;49.202;18.744;2022-11-20T09:44:22;29.27;;;18.27;;
70588;SDS011;58152;49.202;18.744;2022-11-20T09:46:54;28.48;;;17.83;;
70588;SDS011;58152;49.202;18.744;2022-11-20T09:49:44;28.15;;;18.20;;
70588;SDS011;58152;49.202;18.744;2022-11-20T09:55:24;31.55;;;20.38;;
70588;SDS011;58152;49.202;18.744;2022-11-20T09:57:56;30.50;;;18.98;;
70588;SDS011;58152;49.202;18.744;2022-11-20T10:00:24;34.38;;;22.08;;
70588;SDS011;58152;49.202;18.744;2022-11-20T10:05:52;85.35;;;58.33;;
70588;SDS011;58152;49.202;18.744;2022-11-20T10:20:29;36.90;;;22.45;;
70588;SDS011;58152;49.202;18.744;2022-11-20T10:31:30;31.77;;;20.08;;
70588;SDS011;58152;49.202;18.744;2022-11-20T10:33:56;30.15;;;18.92;;
70588;SDS011;58152;49.202;18.744;2022-11-20T10:36:27;32.28;;;20.45;;
70588;SDS011;58152;49.202;18.744;2022-11-20T10:38:57;32.28;;;21.08;;
70588;SDS011;58152;49.202;18.744;2022-11-20T10:41:27;31.33;;;20.23;;
70588;SDS011;58152;49.202;18.744;2022-11-20T10:44:00;30.42;;;20.20;;
70588;SDS011;58152;49.202;18.744;2022-11-20T10:46:33;32.08;;;20.95;;
70588;SDS011;58152;49.202;18.744;2022-11-20T11:00:34;31.10;;;19.48;;
70588;SDS011;58152;49.202;18.744;2022-11-20T11:03:00;36.92;;;21.55;;
70588;SDS011;58152;49.202;18.744;2022-11-20T11:08:16;30.88;;;18.38;;
70588;SDS011;58152;49.202;18.744;2022-11-20T11:10:48;33.65;;;19.48;;
70588;SDS011;58152;49.202;18.744;2022-11-20T11:13:19;28.98;;;18.42;;
70588;SDS011;58152;49.202;18.744;2022-11-20T11:15:54;28.60;;;17.80;;
70588;SDS011;58152;49.202;18.744;2022-11-20T11:18:24;29.13;;;17.90;;
70588;SDS011;58152;49.202;18.744;2022-11-20T11:20:51;33.15;;;20.75;;
70588;SDS011;58152;49.202;18.744;2022-11-20T11:23:36;32.17;;;20.77;;
70588;SDS011;58152;49.202;18.744;2022-11-20T11:26:06;29.90;;;19.15;;
70588;SDS011;58152;49.202;18.744;2022-11-20T11:28:52;32.10;;;19.42;;
70588;SDS011;58152;49.202;18.744;2022-11-20T11:31:28;30.65;;;18.92;;
70588;SDS011;58152;49.202;18.744;2022-11-20T11:34:15;33.30;;;19.52;;
70588;SDS011;58152;49.202;18.744;2022-11-20T11:36:42;26.40;;;16.48;;
70588;SDS011;58152;49.202;18.744;2022-11-20T11:39:22;31.33;;;19.23;;
70588;SDS011;58152;49.202;18.744;2022-11-20T11:41:52;33.10;;;20.63;;
70588;SDS011;58152;49.202;18.744;2022-11-20T11:44:31;33.77;;;21.00;;
70588;SDS011;58152;49.202;18.744;2022-11-20T11:52:38;30.85;;;18.63;;
70588;SDS011;58152;49.202;18.744;2022-11-20T11:55:31;31.67;;;20.30;;
70588;SDS011;58152;49.202;18.744;2022-11-20T11:58:17;36.10;;;22.73;;
70588;SDS011;58152;49.202;18.744;2022-11-20T12:00:58;37.03;;;23.95;;
70588;SDS011;58152;49.202;18.744;2022-11-20T12:03:36;35.28;;;21.40;;
70588;SDS011;58152;49.202;18.744;2022-11-20T12:06:14;37.25;;;22.85;;
70588;SDS011;58152;49.202;18.744;2022-11-20T12:08:54;33.80;;;20.48;;
70588;SDS011;58152;49.202;18.744;2022-11-20T12:14:40;33.43;;;19.00;;
70588;SDS011;58152;49.202;18.744;2022-11-20T12:17:31;29.88;;;19.27;;
70588;SDS011;58152;49.202;18.744;2022-11-20T12:20:14;34.50;;;21.50;;
70588;SDS011;58152;49.202;18.744;2022-11-20T12:26:27;29.77;;;20.15;;
70588;SDS011;58152;49.202;18.744;2022-11-20T12:32:14;29.27;;;19.20;;
70588;SDS011;58152;49.202;18.744;2022-11-20T12:43:45;34.10;;;20.00;;
70588;SDS011;58152;49.202;18.744;2022-11-20T12:57:28;35.88;;;22.77;;
70588;SDS011;58152;49.202;18.744;2022-11-20T13:00:10;33.53;;;20.63;;
70588;SDS011;58152;49.202;18.744;2022-11-20T13:08:36;35.90;;;22.13;;
70588;SDS011;58152;49.202;18.744;2022-11-20T13:16:47;35.15;;;21.10;;
70588;SDS011;58152;49.202;18.744;2022-11-20T13:19:22;34.83;;;20.88;;
70588;SDS011;58152;49.202;18.744;2022-11-20T13:21:53;32.72;;;20.92;;
70588;SDS011;58152;49.202;18.744;2022-11-20T13:26:45;33.88;;;21.40;;
70588;SDS011;58152;49.202;18.744;2022-11-20T13:29:11;33.60;;;21.38;;
70588;SDS011;58152;49.202;18.744;2022-11-20T13:31:44;33.45;;;21.88;;
70588;SDS011;58152;49.202;18.744;2022-11-20T13:34:12;33.67;;;21.50;;
70588;SDS011;58152;49.202;18.744;2022-11-20T13:36:56;35.30;;;22.75;;
70588;SDS011;58152;49.202;18.744;2022-11-20T13:39:26;34.95;;;23.80;;
70588;SDS011;58152;49.202;18.744;2022-11-20T13:41:56;34.80;;;22.63;;
70588;SDS011;58152;49.202;18.744;2022-11-20T13:44:35;36.30;;;22.70;;
70588;SDS011;58152;49.202;18.744;2022-11-20T13:47:03;36.95;;;23.48;;
70588;SDS011;58152;49.202;18.744;2022-11-20T13:49:44;32.10;;;22.20;;
70588;SDS011;58152;49.202;18.744;2022-11-20T13:58:31;32.95;;;21.50;;
70588;SDS011;58152;49.202;18.744;2022-11-20T14:01:45;35.15;;;21.20;;
70588;SDS011;58152;49.202;18.744;2022-11-20T14:04:15;36.78;;;23.50;;
70588;SDS011;58152;49.202;18.744;2022-11-20T14:06:45;35.15;;;22.08;;
70588;SDS011;58152;49.202;18.744;2022-11-20T14:09:25;35.28;;;21.85;;
70588;SDS011;58152;49.202;18.744;2022-11-20T14:11:51;33.60;;;22.58;;
70588;SDS011;58152;49.202;18.744;2022-11-20T14:14:18;33.65;;;21.98;;
70588;SDS011;58152;49.202;18.744;2022-11-20T14:16:46;38.50;;;23.75;;
70588;SDS011;58152;49.202;18.744;2022-11-20T14:19:26;39.03;;;23.58;;
70588;SDS011;58152;49.202;18.744;2022-11-20T14:22:08;36.30;;;21.30;;
70588;SDS011;58152;49.202;18.744;2022-11-20T14:24:44;37.25;;;23.83;;
70588;SDS011;58152;49.202;18.744;2022-11-20T14:27:27;37.97;;;23.63;;
70588;SDS011;58152;49.202;18.744;2022-11-20T14:29:53;35.05;;;23.15;;
70588;SDS011;58152;49.202;18.744;2022-11-20T14:32:21;41.05;;;24.73;;
70588;SDS011;58152;49.202;18.744;2022-11-20T14:34:55;35.65;;;22.23;;
70588;SDS011;58152;49.202;18.744;2022-11-20T14:37:27;40.67;;;24.85;;
70588;SDS011;58152;49.202;18.744;2022-11-20T14:39:58;36.13;;;22.27;;
70588;SDS011;58152;49.202;18.744;2022-11-20T14:42:27;37.05;;;23.80;;
70588;SDS011;58152;49.202;18.744;2022-11-20T14:44:56;37.58;;;23.98;;
70588;SDS011;58152;49.202;18.744;2022-11-20T14:47:25;35.03;;;22.52;;
70588;SDS011;58152;49.202;18.744;2022-11-20T14:49:52;31.98;;;20.85;;
70588;SDS011;58152;49.202;18.744;2022-11-20T14:52:20;36.42;;;22.65;;
70588;SDS011;58152;49.202;18.744;2022-11-20T14:54:51;36.83;;;22.73;;
70588;SDS011;58152;49.202;18.744;2022-11-20T14:57:30;35.08;;;22.83;;
70588;SDS011;58152;49.202;18.744;2022-11-20T15:00:07;35.30;;;22.75;;
70588;SDS011;58152;49.202;18.744;2022-11-20T15:02:46;40.67;;;24.88;;
70588;SDS011;58152;49.202;18.744;2022-11-20T15:05:13;34.33;;;22.50;;
70588;SDS011;58152;49.202;18.744;2022-11-20T15:07:41;38.35;;;22.95;;
70588;SDS011;58152;49.202;18.744;2022-11-20T15:13:43;37.47;;;23.33;;
70588;SDS011;58152;49.202;18.744;2022-11-20T15:23:48;40.03;;;23.15;;
70588;SDS011;58152;49.202;18.744;2022-11-20T15:26:27;42.30;;;23.92;;
70588;SDS011;58152;49.202;18.744;2022-11-20T15:32:47;37.60;;;22.63;;
70588;SDS011;58152;49.202;18.744;2022-11-20T15:35:51;30.63;;;19.02;;
70588;SDS011;58152;49.202;18.744;2022-11-20T15:38:17;35.25;;;21.50;;
70588;SDS011;58152;49.202;18.744;2022-11-20T15:40:42;32.30;;;19.77;;
70588;SDS011;58152;49.202;18.744;2022-11-20T15:43:08;36.15;;;22.20;;
70588;SDS011;58152;49.202;18.744;2022-11-20T15:45:36;38.58;;;23.35;;
70588;SDS011;58152;49.202;18.744;2022-11-20T15:53:40;45.55;;;27.67;;
70588;SDS011;58152;49.202;18.744;2022-11-20T15:56:13;46.95;;;28.52;;
70588;SDS011;58152;49.202;18.744;2022-11-20T15:58:42;42.42;;;24.70;;
70588;SDS011;58152;49.202;18.744;2022-11-20T16:01:11;40.80;;;23.27;;
70588;SDS011;58152;49.202;18.744;2022-11-20T16:03:38;41.42;;;25.10;;
70588;SDS011;58152;49.202;18.744;2022-11-20T16:06:07;38.75;;;25.48;;
70588;SDS011;58152;49.202;18.744;2022-11-20T16:08:36;42.35;;;25.00;;
70588;SDS011;58152;49.202;18.744;2022-11-20T16:11:06;39.10;;;25.83;;
70588;SDS011;58152;49.202;18.744;2022-11-20T16:13:31;47.35;;;27.08;;
70588;SDS011;58152;49.202;18.744;2022-11-20T16:16:20;44.53;;;26.05;;
70588;SDS011;58152;49.202;18.744;2022-11-20T16:18:49;41.13;;;25.05;;
70588;SDS011;58152;49.202;18.744;2022-11-20T16:21:15;39.50;;;24.58;;
70588;SDS011;58152;49.202;18.744;2022-11-20T16:23:47;44.92;;;25.00;;
70588;SDS011;58152;49.202;18.744;2022-11-20T16:26:13;41.90;;;27.45;;
70588;SDS011;58152;49.202;18.744;2022-11-20T16:28:42;44.38;;;27.45;;
70588;SDS011;58152;49.202;18.744;2022-11-20T16:31:15;46.28;;;28.45;;
70588;SDS011;58152;49.202;18.744;2022-11-20T16:33:49;40.90;;;25.80;;
70588;SDS011;58152;49.202;18.744;2022-11-20T16:36:18;36.55;;;22.83;;
70588;SDS011;58152;49.202;18.744;2022-11-20T16:38:45;40.03;;;24.02;;
70588;SDS011;58152;49.202;18.744;2022-11-20T16:41:16;41.22;;;24.73;;
70588;SDS011;58152;49.202;18.744;2022-11-20T16:43:48;37.60;;;23.38;;